createdAt,value
2023-01-19T00:00:54.502Z,71.03
2023-01-19T00:03:28.062Z,71.04
2023-01-19T00:05:55.384Z,71.16
2023-01-19T00:08:22.616Z,71.01
2023-01-19T00:10:53.199Z,71.01
2023-01-19T00:13:20.613Z,71.11
2023-01-19T00:15:47.852Z,71.04
2023-01-19T00:18:15.114Z,70.93
2023-01-19T00:20:42.804Z,71.06
2023-01-19T00:23:09.978Z,71.17
2023-01-19T00:25:42.811Z,71.11
2023-01-19T00:28:11.631Z,71.09
2023-01-19T00:30:40.050Z,71.25
2023-01-19T00:33:07.257Z,71.09
2023-01-19T00:35:35.679Z,71.14
2023-01-19T00:38:03.454Z,71.05
2023-01-19T00:40:30.655Z,70.92
2023-01-19T00:42:58.330Z,71.10
2023-01-19T00:45:25.983Z,71.17
2023-01-19T00:47:57.402Z,71.25
2023-01-19T00:50:26.731Z,71.15
2023-01-19T00:52:55.682Z,71.12
2023-01-19T00:55:23.673Z,71.26
2023-01-19T00:57:51.036Z,71.32
2023-01-19T01:00:20.422Z,71.18
2023-01-19T01:02:49.455Z,71.11
2023-01-19T01:05:17.523Z,71.11
2023-01-19T01:07:45.490Z,70.97
2023-01-19T01:10:22.310Z,71.04
2023-01-19T01:13:05.031Z,71.07
2023-01-19T01:15:37.232Z,71.09
2023-01-19T01:18:04.381Z,71.14
2023-01-19T01:20:33.770Z,71.21
2023-01-19T01:23:01.327Z,71.05
2023-01-19T01:25:31.108Z,71.14
2023-01-19T01:27:58.382Z,71.29
2023-01-19T01:30:25.558Z,71.23
2023-01-19T01:32:52.715Z,71.32
2023-01-19T01:35:19.858Z,71.35
2023-01-19T01:37:47.035Z,71.38
2023-01-19T01:40:17.055Z,71.47
2023-01-19T01:42:44.673Z,71.29
2023-01-19T01:45:34.968Z,71.43
2023-01-19T01:48:10.792Z,71.48
2023-01-19T01:51:03.181Z,71.26
2023-01-19T01:53:32.946Z,71.08
2023-01-19T01:56:04.392Z,71.20
2023-01-19T01:58:34.029Z,71.35
2023-01-19T02:01:20.199Z,71.31
2023-01-19T02:03:47.507Z,71.43
2023-01-19T02:06:15.065Z,71.51
2023-01-19T02:09:21.160Z,71.39
2023-01-19T02:12:07.044Z,71.24
2023-01-19T02:14:39.058Z,71.58
2023-01-19T02:17:07.127Z,71.57
2023-01-19T02:19:41.240Z,71.59
2023-01-19T02:22:12.206Z,71.47
2023-01-19T02:24:39.486Z,71.58
2023-01-19T02:27:07.970Z,71.57
2023-01-19T02:29:35.682Z,71.60
2023-01-19T02:32:03.292Z,71.54
2023-01-19T02:34:30.826Z,71.50
2023-01-19T02:36:59.446Z,71.45
2023-01-19T02:39:42.164Z,71.55
2023-01-19T02:42:21.669Z,71.61
2023-01-19T02:44:51.890Z,71.49
2023-01-19T02:47:19.955Z,71.53
2023-01-19T02:50:01.323Z,71.50
2023-01-19T02:52:28.835Z,71.54
2023-01-19T02:55:13.093Z,71.48
2023-01-19T02:57:43.821Z,71.36
2023-01-19T03:00:25.796Z,71.63
2023-01-19T03:03:25.708Z,71.57
2023-01-19T03:06:11.906Z,71.52
2023-01-19T03:09:00.871Z,71.49
2023-01-19T03:11:33.650Z,71.50
2023-01-19T03:14:09.073Z,71.48
2023-01-19T03:16:42.152Z,71.42
2023-01-19T03:19:32.683Z,71.36
2023-01-19T03:22:07.488Z,71.40
2023-01-19T03:24:38.684Z,71.37
2023-01-19T03:27:13.412Z,71.39
2023-01-19T03:29:47.282Z,71.37
2023-01-19T03:32:18.065Z,71.42
2023-01-19T03:34:49.736Z,71.51
2023-01-19T03:37:19.933Z,71.37
2023-01-19T03:39:47.324Z,71.41
2023-01-19T03:42:17.689Z,71.41
2023-01-19T03:44:46.727Z,71.34
2023-01-19T03:47:15.117Z,71.53
2023-01-19T03:49:45.392Z,71.44
2023-01-19T03:52:13.026Z,71.50
2023-01-19T03:54:41.181Z,71.39
2023-01-19T03:57:08.581Z,71.41
2023-01-19T03:59:36.494Z,71.49
2023-01-19T04:02:03.680Z,71.48
2023-01-19T04:04:30.842Z,71.59
2023-01-19T04:06:58.008Z,71.47
2023-01-19T04:09:25.849Z,71.60
2023-01-19T04:11:53.072Z,71.41
2023-01-19T04:14:20.279Z,71.60
2023-01-19T04:16:47.475Z,71.53
2023-01-19T04:19:14.812Z,71.57
2023-01-19T04:21:41.940Z,71.51
2023-01-19T04:24:10.715Z,71.36
2023-01-19T04:26:37.869Z,71.46
2023-01-19T04:29:05.669Z,71.37
2023-01-19T04:31:33.184Z,71.41
2023-01-19T04:34:00.321Z,71.49
2023-01-19T04:36:28.383Z,71.58
2023-01-19T04:38:55.570Z,71.43
2023-01-19T04:41:22.769Z,71.50
2023-01-19T04:43:50.006Z,71.52
2023-01-19T04:46:17.214Z,71.55
2023-01-19T04:48:44.480Z,71.53
2023-01-19T04:51:11.925Z,71.52
2023-01-19T04:53:39.168Z,71.44
2023-01-19T04:56:06.425Z,71.35
2023-01-19T04:58:33.750Z,71.42
2023-01-19T05:01:00.953Z,71.35
2023-01-19T05:03:28.179Z,71.22
2023-01-19T05:05:55.537Z,71.27
2023-01-19T05:08:22.759Z,71.22
2023-01-19T05:10:50.271Z,71.39
2023-01-19T05:13:17.468Z,71.70
2023-01-19T05:15:44.776Z,71.52
2023-01-19T05:18:11.999Z,71.47
2023-01-19T05:20:40.256Z,71.53
2023-01-19T05:23:07.519Z,71.55
2023-01-19T05:25:34.736Z,71.37
2023-01-19T05:28:03.016Z,71.31
2023-01-19T05:30:30.211Z,71.40
2023-01-19T05:32:57.363Z,71.38
2023-01-19T05:35:35.371Z,71.57
2023-01-19T05:38:03.777Z,71.37
2023-01-19T05:40:31.001Z,71.41
2023-01-19T05:43:01.365Z,71.48
2023-01-19T05:45:28.830Z,71.68
2023-01-19T05:47:56.136Z,71.64
2023-01-19T05:50:23.505Z,71.60
2023-01-19T05:52:53.291Z,71.65
2023-01-19T05:55:21.771Z,71.60
2023-01-19T05:57:49.230Z,71.59
2023-01-19T06:00:17.326Z,71.56
2023-01-19T06:02:44.860Z,71.63
2023-01-19T06:05:12.213Z,71.47
2023-01-19T06:07:39.451Z,71.59
2023-01-19T06:10:07.330Z,71.56
2023-01-19T06:12:34.878Z,71.53
2023-01-19T06:15:02.152Z,71.59
2023-01-19T06:17:29.308Z,71.53
2023-01-19T06:19:56.496Z,71.69
2023-01-19T06:22:23.654Z,71.58
2023-01-19T06:24:51.256Z,71.61
2023-01-19T06:27:18.457Z,71.47
2023-01-19T06:29:45.645Z,71.52
2023-01-19T06:32:12.841Z,71.48
2023-01-19T06:34:43.775Z,71.45
2023-01-19T06:37:14.048Z,71.50
2023-01-19T06:39:41.259Z,71.41
2023-01-19T06:42:08.698Z,71.66
2023-01-19T06:44:35.897Z,71.61
2023-01-19T06:47:14.547Z,71.71
2023-01-19T06:49:43.727Z,71.59
2023-01-19T06:52:11.752Z,71.60
2023-01-19T06:54:38.975Z,71.69
2023-01-19T06:57:06.131Z,71.65
2023-01-19T06:59:33.303Z,71.72
2023-01-19T07:02:00.643Z,71.69
2023-01-19T07:04:47.665Z,71.52
2023-01-19T07:07:16.684Z,71.56
2023-01-19T07:09:43.845Z,71.50
2023-01-19T07:12:11.045Z,71.61
2023-01-19T07:14:38.068Z,71.68
2023-01-19T07:17:05.197Z,71.67
2023-01-19T07:19:32.753Z,71.66
2023-01-19T07:22:00.007Z,71.70
2023-01-19T07:24:27.210Z,71.75
2023-01-19T07:26:54.359Z,71.68
2023-01-19T07:29:21.536Z,71.54
2023-01-19T07:31:49.683Z,71.49
2023-01-19T07:34:17.044Z,71.59
2023-01-19T07:36:44.450Z,71.46
2023-01-19T07:39:11.629Z,71.66
2023-01-19T07:41:39.003Z,71.54
2023-01-19T07:44:06.975Z,71.58
2023-01-19T07:46:34.176Z,71.59
2023-01-19T07:49:01.327Z,71.63
2023-01-19T07:51:28.507Z,71.59
2023-01-19T07:53:55.631Z,71.63
2023-01-19T07:56:24.365Z,71.79
2023-01-19T07:58:52.638Z,71.78
2023-01-19T08:01:20.094Z,71.54
2023-01-19T08:03:50.986Z,71.60
2023-01-19T08:06:24.009Z,71.67
2023-01-19T08:08:51.306Z,71.66
2023-01-19T08:11:18.350Z,71.51
2023-01-19T08:13:45.539Z,71.49
2023-01-19T08:16:12.764Z,71.75
2023-01-19T08:18:39.963Z,71.77
2023-01-19T08:21:07.298Z,71.91
2023-01-19T08:23:34.547Z,71.73
2023-01-19T08:26:01.768Z,71.70
2023-01-19T08:28:29.061Z,71.74
2023-01-19T08:30:56.347Z,71.72
2023-01-19T08:33:25.421Z,71.76
2023-01-19T08:35:53.834Z,71.60
2023-01-19T08:38:21.032Z,71.61
2023-01-19T08:40:49.215Z,71.71
2023-01-19T08:43:17.661Z,71.68
2023-01-19T08:45:52.262Z,71.69
2023-01-19T08:48:22.542Z,71.63
2023-01-19T08:50:51.539Z,71.68
2023-01-19T08:53:21.184Z,71.78
2023-01-19T08:55:48.362Z,71.71
2023-01-19T08:58:15.694Z,71.73
2023-01-19T09:00:42.819Z,71.73
2023-01-19T09:03:13.874Z,71.72
2023-01-19T09:05:41.117Z,71.67
2023-01-19T09:08:11.227Z,71.81
2023-01-19T09:10:39.742Z,71.74
2023-01-19T09:13:10.971Z,71.67
2023-01-19T09:15:39.993Z,71.64
2023-01-19T09:18:14.146Z,71.74
2023-01-19T09:20:45.299Z,71.52
2023-01-19T09:23:14.640Z,71.56
2023-01-19T09:25:44.072Z,71.62
2023-01-19T09:28:14.709Z,71.67
2023-01-19T09:30:43.458Z,71.64
2023-01-19T09:33:13.202Z,71.57
2023-01-19T09:35:41.939Z,71.68
2023-01-19T09:38:10.696Z,71.74
2023-01-19T09:40:43.236Z,71.68
2023-01-19T09:43:13.051Z,71.70
2023-01-19T09:45:48.769Z,71.60
2023-01-19T09:48:51.944Z,71.69
2023-01-19T09:51:24.192Z,71.63
2023-01-19T09:53:55.781Z,71.68
2023-01-19T09:56:24.067Z,71.73
2023-01-19T09:58:52.391Z,71.68
2023-01-19T10:01:38.504Z,71.78
2023-01-19T10:04:21.384Z,71.71
2023-01-19T10:06:49.764Z,71.74
2023-01-19T10:09:35.306Z,71.79
2023-01-19T10:12:12.944Z,71.83
2023-01-19T10:14:51.026Z,71.79
2023-01-19T10:17:40.243Z,71.79
2023-01-19T10:20:18.075Z,71.72
2023-01-19T10:22:49.053Z,71.85
2023-01-19T10:25:23.874Z,71.93
2023-01-19T10:27:51.879Z,71.80
2023-01-19T10:30:25.860Z,71.79
2023-01-19T10:32:53.564Z,71.81
2023-01-19T10:35:27.160Z,71.76
2023-01-19T10:37:58.566Z,71.66
2023-01-19T10:40:33.460Z,71.57
2023-01-19T10:43:01.221Z,71.78
2023-01-19T10:45:31.636Z,71.57
2023-01-19T10:48:06.655Z,71.57
2023-01-19T10:50:37.364Z,71.67
2023-01-19T10:53:06.548Z,71.93
2023-01-19T10:55:38.864Z,71.91
2023-01-19T10:58:30.205Z,71.80
2023-01-19T11:01:14.077Z,71.90
2023-01-19T11:03:41.390Z,71.85
2023-01-19T11:06:15.603Z,71.97
2023-01-19T11:08:44.612Z,71.86
2023-01-19T11:11:13.415Z,71.88
2023-01-19T11:13:42.345Z,71.70
2023-01-19T11:16:29.426Z,71.77
2023-01-19T11:18:57.993Z,71.66
2023-01-19T11:21:28.158Z,71.87
2023-01-19T11:23:58.586Z,71.81
2023-01-19T11:26:43.354Z,71.94
2023-01-19T11:29:19.330Z,71.76
2023-01-19T11:31:46.799Z,71.87
2023-01-19T11:34:31.420Z,71.94
2023-01-19T11:37:04.009Z,71.94
2023-01-19T11:39:45.058Z,71.84
2023-01-19T11:42:13.582Z,72.03
2023-01-19T11:44:48.132Z,71.93
2023-01-19T11:47:27.367Z,71.81
2023-01-19T11:49:57.381Z,71.91
2023-01-19T11:52:32.403Z,71.96
2023-01-19T11:55:22.563Z,71.87
2023-01-19T11:57:54.711Z,71.90
2023-01-19T12:00:24.848Z,71.94
2023-01-19T12:02:59.619Z,71.87
2023-01-19T12:05:32.435Z,71.93
2023-01-19T12:08:05.456Z,71.98
2023-01-19T12:10:38.538Z,71.86
2023-01-19T12:13:05.650Z,71.95
2023-01-19T12:15:43.181Z,72.04
2023-01-19T12:18:21.186Z,72.15
2023-01-19T12:20:52.154Z,71.98
2023-01-19T12:23:44.660Z,71.83
2023-01-19T12:26:21.987Z,71.90
2023-01-19T12:28:52.341Z,71.86
2023-01-19T12:31:22.780Z,71.84
2023-01-19T12:33:50.838Z,71.95
2023-01-19T12:36:30.378Z,72.04
2023-01-19T12:39:05.708Z,71.93
2023-01-19T12:41:37.133Z,71.97
2023-01-19T12:44:10.505Z,71.95
2023-01-19T12:46:53.132Z,71.84
2023-01-19T12:49:31.497Z,71.78
2023-01-19T12:52:14.281Z,71.83
2023-01-19T12:54:49.869Z,71.95
2023-01-19T12:57:33.642Z,71.90
2023-01-19T13:00:06.052Z,71.82
2023-01-19T13:02:44.982Z,71.86
2023-01-19T13:05:32.512Z,71.90
2023-01-19T13:08:03.279Z,71.87
2023-01-19T13:11:10.847Z,72.07
2023-01-19T13:13:46.736Z,72.03
2023-01-19T13:16:20.347Z,72.04
2023-01-19T13:19:07.323Z,71.87
2023-01-19T13:21:44.782Z,71.89
2023-01-19T13:24:15.707Z,72.08
2023-01-19T13:26:55.205Z,71.94
2023-01-19T13:29:30.347Z,71.84
2023-01-19T13:32:03.553Z,71.82
2023-01-19T13:34:42.850Z,71.97
2023-01-19T13:37:18.965Z,71.84
2023-01-19T13:39:50.538Z,71.99
2023-01-19T13:42:30.446Z,72.09
2023-01-19T13:45:05.882Z,71.99
2023-01-19T13:47:48.598Z,71.87
2023-01-19T13:50:25.299Z,71.89
2023-01-19T13:52:54.690Z,71.97
2023-01-19T13:55:23.596Z,71.93
2023-01-19T13:57:51.984Z,71.86
2023-01-19T14:00:21.205Z,71.90
2023-01-19T14:02:57.242Z,72.04
2023-01-19T14:05:26.538Z,71.97
2023-01-19T14:08:21.391Z,71.92
2023-01-19T14:10:54.743Z,71.95
2023-01-19T14:13:23.008Z,72.01
2023-01-19T14:15:54.021Z,72.03
2023-01-19T14:18:24.371Z,71.98
2023-01-19T14:20:58.836Z,72.07
2023-01-19T14:24:06.801Z,72.09
2023-01-19T14:26:51.411Z,71.94
2023-01-19T14:29:32.786Z,72.00
2023-01-19T14:32:14.434Z,71.89
2023-01-19T14:35:06.057Z,71.92
2023-01-19T14:37:38.208Z,71.93
2023-01-19T14:40:10.741Z,71.98
2023-01-19T14:42:49.957Z,71.98
2023-01-19T14:45:22.859Z,72.17
2023-01-19T14:48:02.339Z,72.10
2023-01-19T14:50:33.943Z,71.91
2023-01-19T14:53:04.811Z,72.11
2023-01-19T14:55:54.501Z,72.00
2023-01-19T14:58:24.581Z,71.89
2023-01-19T15:00:55.865Z,71.98
2023-01-19T15:03:32.014Z,71.88
2023-01-19T15:06:15.816Z,71.91
2023-01-19T15:08:43.930Z,71.94
2023-01-19T15:11:32.862Z,71.83
2023-01-19T15:14:01.122Z,71.94
2023-01-19T15:16:31.695Z,72.04
2023-01-19T15:18:58.974Z,72.14
2023-01-19T15:21:29.094Z,72.02
2023-01-19T15:23:58.414Z,72.00
2023-01-19T15:26:27.388Z,72.10
2023-01-19T15:28:56.308Z,72.04
2023-01-19T15:31:25.707Z,72.19
2023-01-19T15:33:52.907Z,72.01
2023-01-19T15:36:21.956Z,72.03
2023-01-19T15:38:51.268Z,71.97
2023-01-19T15:41:26.166Z,71.93
2023-01-19T15:43:53.415Z,72.07
2023-01-19T15:46:21.521Z,72.16
2023-01-19T15:48:52.866Z,72.08
2023-01-19T15:51:22.178Z,72.01
2023-01-19T15:53:50.019Z,72.01
2023-01-19T15:56:23.584Z,72.03
2023-01-19T15:58:51.456Z,72.13
2023-01-19T16:01:21.592Z,71.90
2023-01-19T16:03:49.798Z,71.82
2023-01-19T16:06:18.052Z,71.78
2023-01-19T16:08:45.663Z,71.87
2023-01-19T16:11:15.477Z,71.96
2023-01-19T16:13:46.671Z,72.03
2023-01-19T16:16:19.575Z,72.02
2023-01-19T16:18:46.806Z,72.14
2023-01-19T16:21:14.136Z,72.07
2023-01-19T16:23:41.315Z,72.03
2023-01-19T16:26:31.068Z,71.93
2023-01-19T16:29:08.020Z,72.02
2023-01-19T16:31:36.612Z,71.89
2023-01-19T16:34:03.993Z,71.98
2023-01-19T16:36:33.558Z,71.96
2023-01-19T16:39:03.307Z,71.68
2023-01-19T16:41:30.654Z,71.71
2023-01-19T16:43:58.536Z,71.92
2023-01-19T16:46:28.652Z,72.10
2023-01-19T16:49:00.694Z,72.11
2023-01-19T16:51:27.871Z,72.07
2023-01-19T16:53:55.025Z,72.21
2023-01-19T16:56:22.425Z,72.28
2023-01-19T16:58:54.299Z,72.02
2023-01-19T17:01:22.250Z,71.98
2023-01-19T17:03:49.970Z,72.10
2023-01-19T17:06:20.214Z,71.90
2023-01-19T17:08:47.704Z,72.03
2023-01-19T17:11:23.285Z,71.90
2023-01-19T17:13:54.147Z,71.86
2023-01-19T17:16:22.386Z,71.88
2023-01-19T17:18:49.999Z,72.00
2023-01-19T17:21:17.997Z,72.02
2023-01-19T17:23:47.349Z,71.98
2023-01-19T17:26:16.092Z,72.08
2023-01-19T17:28:43.828Z,72.01
2023-01-19T17:31:17.294Z,72.08
2023-01-19T17:33:46.765Z,72.04
2023-01-19T17:36:17.084Z,72.02
2023-01-19T17:38:44.212Z,71.93
2023-01-19T17:41:24.180Z,71.85
2023-01-19T17:43:52.272Z,72.03
2023-01-19T17:46:21.300Z,71.94
2023-01-19T17:49:00.153Z,71.92
2023-01-19T17:51:28.734Z,71.96
2023-01-19T17:53:56.687Z,72.00
2023-01-19T17:56:29.787Z,71.97
2023-01-19T17:58:58.304Z,72.01
2023-01-19T18:01:28.620Z,71.94
2023-01-19T18:03:57.132Z,72.11
2023-01-19T18:06:24.638Z,72.02
2023-01-19T18:08:52.666Z,71.82
2023-01-19T18:11:20.858Z,72.03
2023-01-19T18:13:49.957Z,72.00
2023-01-19T18:16:21.558Z,72.02
2023-01-19T18:18:49.939Z,71.98
2023-01-19T18:21:17.570Z,72.03
2023-01-19T18:23:45.946Z,71.80
2023-01-19T18:26:16.485Z,72.10
2023-01-19T18:28:43.818Z,72.10
2023-01-19T18:31:13.398Z,72.06
2023-01-19T18:33:41.183Z,71.96
2023-01-19T18:36:09.567Z,72.01
2023-01-19T18:38:38.371Z,72.02
2023-01-19T18:41:06.791Z,71.98
2023-01-19T18:43:34.268Z,72.00
2023-01-19T18:46:01.519Z,71.96
2023-01-19T18:48:28.965Z,71.91
2023-01-19T18:50:56.723Z,71.94
2023-01-19T18:53:24.165Z,72.05
2023-01-19T18:56:04.387Z,72.02
2023-01-19T18:58:33.045Z,72.01
2023-01-19T19:01:01.429Z,72.20
2023-01-19T19:03:29.284Z,72.09
2023-01-19T19:05:56.757Z,72.06
2023-01-19T19:08:23.980Z,72.22
2023-01-19T19:10:51.132Z,72.03
2023-01-19T19:13:20.686Z,71.94
2023-01-19T19:15:47.862Z,71.93
2023-01-19T19:18:16.372Z,71.94
2023-01-19T19:20:43.953Z,71.94
2023-01-19T19:23:11.803Z,71.90
2023-01-19T19:25:39.184Z,71.94
2023-01-19T19:28:06.729Z,71.93
2023-01-19T19:30:35.783Z,71.97
2023-01-19T19:33:03.009Z,72.10
2023-01-19T19:35:30.212Z,72.07
2023-01-19T19:37:57.915Z,72.03
2023-01-19T19:40:27.121Z,71.97
2023-01-19T19:42:56.432Z,71.95
2023-01-19T19:45:25.544Z,72.01
2023-01-19T19:47:52.829Z,71.92
2023-01-19T19:50:20.002Z,71.85
2023-01-19T19:52:47.230Z,71.79
2023-01-19T19:55:14.570Z,71.73
2023-01-19T19:57:41.705Z,71.84
2023-01-19T20:00:09.600Z,71.97
2023-01-19T20:02:37.303Z,72.00
2023-01-19T20:05:05.281Z,71.80
2023-01-19T20:07:32.958Z,71.85
2023-01-19T20:10:00.189Z,71.82
2023-01-19T20:12:27.585Z,71.82
2023-01-19T20:14:54.661Z,71.97
2023-01-19T20:17:23.291Z,71.75
2023-01-19T20:19:50.491Z,71.76
2023-01-19T20:22:17.724Z,71.81
2023-01-19T20:24:45.060Z,71.78
2023-01-19T20:27:12.198Z,71.70
2023-01-19T20:29:39.463Z,71.95
2023-01-19T20:32:06.676Z,71.89
2023-01-19T20:34:35.735Z,71.72
2023-01-19T20:37:04.765Z,71.70
2023-01-19T20:39:34.788Z,71.81
2023-01-19T20:42:02.694Z,71.84
2023-01-19T20:44:30.410Z,71.91
2023-01-19T20:46:57.628Z,71.77
2023-01-19T20:49:25.116Z,71.78
2023-01-19T20:51:52.369Z,71.72
2023-01-19T20:54:22.416Z,71.76
2023-01-19T20:56:49.623Z,71.61
2023-01-19T20:59:17.139Z,71.68
2023-01-19T21:01:45.242Z,71.90
2023-01-19T21:04:12.851Z,71.81
2023-01-19T21:06:41.021Z,71.87
2023-01-19T21:09:10.146Z,71.93
2023-01-19T21:11:38.568Z,71.98
2023-01-19T21:14:06.660Z,71.88
2023-01-19T21:16:35.664Z,71.87
2023-01-19T21:19:04.160Z,71.81
2023-01-19T21:21:32.057Z,71.87
2023-01-19T21:24:04.074Z,71.80
2023-01-19T21:26:31.689Z,71.84
2023-01-19T21:29:00.505Z,71.90
2023-01-19T21:31:28.602Z,72.11
2023-01-19T21:33:59.218Z,71.84
2023-01-19T21:36:27.032Z,71.99
2023-01-19T21:39:00.371Z,71.90
2023-01-19T21:41:30.034Z,71.93
2023-01-19T21:43:58.652Z,72.10
2023-01-19T21:46:29.368Z,72.00
2023-01-19T21:49:02.180Z,71.99
2023-01-19T21:51:33.613Z,72.02
2023-01-19T21:54:03.170Z,72.08
2023-01-19T21:56:31.246Z,71.94
2023-01-19T21:59:03.698Z,72.01
2023-01-19T22:01:32.463Z,72.02
2023-01-19T22:04:00.020Z,71.88
2023-01-19T22:06:28.043Z,71.87
2023-01-19T22:08:57.972Z,72.07
2023-01-19T22:11:25.176Z,72.08
2023-01-19T22:13:53.041Z,72.11
2023-01-19T22:16:21.638Z,72.02
2023-01-19T22:18:54.218Z,72.01
2023-01-19T22:21:23.976Z,71.98
2023-01-19T22:23:53.552Z,71.97
2023-01-19T22:26:21.263Z,72.06
2023-01-19T22:28:49.027Z,72.02
2023-01-19T22:31:18.272Z,71.95
2023-01-19T22:33:46.103Z,71.93
2023-01-19T22:36:26.430Z,71.93
2023-01-19T22:38:56.091Z,71.89
2023-01-19T22:41:30.443Z,72.04
2023-01-19T22:43:59.964Z,72.00
2023-01-19T22:46:30.104Z,72.07
2023-01-19T22:48:57.748Z,71.98
2023-01-19T22:51:26.474Z,72.08
2023-01-19T22:53:53.803Z,72.05
2023-01-19T22:56:29.750Z,71.94
2023-01-19T22:58:57.412Z,71.90
2023-01-19T23:01:27.992Z,71.90
2023-01-19T23:03:56.046Z,71.87
2023-01-19T23:06:26.031Z,71.89
2023-01-19T23:08:56.267Z,71.65
2023-01-19T23:11:26.243Z,71.85
2023-01-19T23:13:53.433Z,71.89
2023-01-19T23:16:21.927Z,72.11
2023-01-19T23:18:53.479Z,71.93
2023-01-19T23:21:22.703Z,71.93
2023-01-19T23:23:53.437Z,71.98
2023-01-19T23:26:21.464Z,71.93
2023-01-19T23:28:52.861Z,71.99
2023-01-19T23:31:23.961Z,72.03
2023-01-19T23:33:56.371Z,71.87
2023-01-19T23:36:25.579Z,71.88
2023-01-19T23:38:55.100Z,71.89
2023-01-19T23:41:23.513Z,72.05
2023-01-19T23:43:50.969Z,72.06
2023-01-19T23:46:19.601Z,71.93
2023-01-19T23:48:47.248Z,72.09
2023-01-19T23:51:17.466Z,71.91
2023-01-19T23:53:45.149Z,72.09
2023-01-19T23:56:15.080Z,72.02
2023-01-19T23:58:42.243Z,72.12
